sensor_id;sensor_type;location;lat;lon;timestamp;pressure;altitude;pressure_sealevel;temperature;humidity
21401;BME280;18038;50.166;18.908;2024-02-21T00:03:06;98648.91;;;4.49;95.54
21401;BME280;18038;50.166;18.908;2024-02-21T00:06:14;98644.84;;;4.45;95.14
21401;BME280;18038;50.166;18.908;2024-02-21T00:09:21;98636.38;;;4.41;94.87
21401;BME280;18038;50.166;18.908;2024-02-21T00:12:30;98629.28;;;4.21;94.83
21401;BME280;18038;50.166;18.908;2024-02-21T00:15:40;98639.25;;;4.17;95.18
21401;BME280;18038;50.166;18.908;2024-02-21T00:18:48;98648.66;;;4.10;95.62
21401;BME280;18038;50.166;18.908;2024-02-21T00:21:55;98646.94;;;4.09;95.72
21401;BME280;18038;50.166;18.908;2024-02-21T00:25:04;98643.63;;;4.07;96.32
21401;BME280;18038;50.166;18.908;2024-02-21T00:28:12;98640.28;;;4.05;96.35
21401;BME280;18038;50.166;18.908;2024-02-21T00:31:23;98632.63;;;4.02;96.36
21401;BME280;18038;50.166;18.908;2024-02-21T00:34:30;98632.63;;;4.02;95.92
21401;BME280;18038;50.166;18.908;2024-02-21T00:37:38;98626.66;;;4.00;96.03
21401;BME280;18038;50.166;18.908;2024-02-21T00:40:46;98623.28;;;3.98;95.94
21401;BME280;18038;50.166;18.908;2024-02-21T00:43:54;98619.88;;;3.86;96.24
21401;BME280;18038;50.166;18.908;2024-02-21T00:47:04;98621.16;;;3.92;96.25
21401;BME280;18038;50.166;18.908;2024-02-21T00:50:13;98617.72;;;3.91;96.34
21401;BME280;18038;50.166;18.908;2024-02-21T00:53:20;98614.66;;;3.96;96.54
21401;BME280;18038;50.166;18.908;2024-02-21T00:56:28;98616.47;;;3.95;96.29
21401;BME280;18038;50.166;18.908;2024-02-21T00:59:37;98611.34;;;3.94;96.68
21401;BME280;18038;50.166;18.908;2024-02-21T01:02:49;98609.66;;;3.93;96.34
21401;BME280;18038;50.166;18.908;2024-02-21T01:05:56;98611.56;;;3.91;96.41
21401;BME280;18038;50.166;18.908;2024-02-21T01:09:05;98613.25;;;3.92;96.76
21401;BME280;18038;50.166;18.908;2024-02-21T01:12:12;98604.13;;;3.96;96.65
21401;BME280;18038;50.166;18.908;2024-02-21T01:15:20;98605.34;;;3.92;96.76
21401;BME280;18038;50.166;18.908;2024-02-21T01:18:30;98612.03;;;3.96;96.87
21401;BME280;18038;50.166;18.908;2024-02-21T01:21:38;98599.94;;;3.93;96.34
21401;BME280;18038;50.166;18.908;2024-02-21T01:24:45;98601.94;;;4.01;96.32
21401;BME280;18038;50.166;18.908;2024-02-21T01:27:54;98597.13;;;4.06;95.91
21401;BME280;18038;50.166;18.908;2024-02-21T01:31:01;98598.09;;;4.05;95.26
21401;BME280;18038;50.166;18.908;2024-02-21T01:34:12;98597.84;;;4.08;95.11
21401;BME280;18038;50.166;18.908;2024-02-21T01:37:19;98599.25;;;4.12;95.03
21401;BME280;18038;50.166;18.908;2024-02-21T01:40:27;98599.72;;;4.17;94.90
21401;BME280;18038;50.166;18.908;2024-02-21T01:43:35;98594.44;;;4.17;95.16
21401;BME280;18038;50.166;18.908;2024-02-21T01:46:43;98591.56;;;4.30;95.57
21401;BME280;18038;50.166;18.908;2024-02-21T01:49:53;98583.38;;;4.23;95.06
21401;BME280;18038;50.166;18.908;2024-02-21T01:53:02;98582.91;;;4.18;95.26
21401;BME280;18038;50.166;18.908;2024-02-21T01:56:10;98580.09;;;4.10;95.51
21401;BME280;18038;50.166;18.908;2024-02-21T01:59:21;98579.13;;;4.11;95.74
21401;BME280;18038;50.166;18.908;2024-02-21T02:02:29;98583.81;;;4.07;95.47
21401;BME280;18038;50.166;18.908;2024-02-21T02:05:40;98578.09;;;4.02;96.27
21401;BME280;18038;50.166;18.908;2024-02-21T02:08:48;98574.19;;;3.97;96.19
21401;BME280;18038;50.166;18.908;2024-02-21T02:11:56;98572.50;;;3.96;96.39
21401;BME280;18038;50.166;18.908;2024-02-21T02:15:04;98579.25;;;3.89;96.57
21401;BME280;18038;50.166;18.908;2024-02-21T02:18:14;98571.34;;;3.89;96.87
21401;BME280;18038;50.166;18.908;2024-02-21T02:21:29;98569.09;;;3.84;97.47
21401;BME280;18038;50.166;18.908;2024-02-21T02:24:43;98561.91;;;3.86;97.90
21401;BME280;18038;50.166;18.908;2024-02-21T02:27:50;98563.25;;;3.80;98.14
21401;BME280;18038;50.166;18.908;2024-02-21T02:30:59;98555.91;;;3.84;98.53
21401;BME280;18038;50.166;18.908;2024-02-21T02:34:06;98556.44;;;3.78;98.44
21401;BME280;18038;50.166;18.908;2024-02-21T02:37:14;98559.19;;;3.76;98.35
21401;BME280;18038;50.166;18.908;2024-02-21T02:40:24;98556.94;;;3.72;98.36
21401;BME280;18038;50.166;18.908;2024-02-21T02:43:33;98552.19;;;3.65;98.35
21401;BME280;18038;50.166;18.908;2024-02-21T02:46:41;98545.00;;;3.68;98.19
21401;BME280;18038;50.166;18.908;2024-02-21T02:49:49;98545.09;;;3.66;98.49
21401;BME280;18038;50.166;18.908;2024-02-21T02:52:57;98545.63;;;3.60;97.64
21401;BME280;18038;50.166;18.908;2024-02-21T02:56:14;98537.97;;;3.57;97.84
21401;BME280;18038;50.166;18.908;2024-02-21T02:59:22;98538.75;;;3.69;97.93
21401;BME280;18038;50.166;18.908;2024-02-21T03:02:29;98542.94;;;3.71;97.43
21401;BME280;18038;50.166;18.908;2024-02-21T03:05:37;98539.22;;;3.74;96.70
21401;BME280;18038;50.166;18.908;2024-02-21T03:08:44;98539.59;;;3.69;97.21
21401;BME280;18038;50.166;18.908;2024-02-21T03:11:56;98532.66;;;3.68;97.15
21401;BME280;18038;50.166;18.908;2024-02-21T03:15:07;98537.91;;;3.68;97.65
21401;BME280;18038;50.166;18.908;2024-02-21T03:18:16;98531.56;;;3.71;97.83
21401;BME280;18038;50.166;18.908;2024-02-21T03:21:23;98535.53;;;3.65;98.33
21401;BME280;18038;50.166;18.908;2024-02-21T03:24:31;98526.72;;;3.55;98.74
21401;BME280;18038;50.166;18.908;2024-02-21T03:27:41;98514.75;;;3.51;99.32
21401;BME280;18038;50.166;18.908;2024-02-21T03:30:49;98520.28;;;3.48;99.53
21401;BME280;18038;50.166;18.908;2024-02-21T03:33:56;98518.84;;;3.55;100.00
21401;BME280;18038;50.166;18.908;2024-02-21T03:37:04;98528.38;;;3.56;99.57
21401;BME280;18038;50.166;18.908;2024-02-21T03:40:12;98515.38;;;3.54;99.50
21401;BME280;18038;50.166;18.908;2024-02-21T03:43:23;98512.00;;;3.52;99.35
21401;BME280;18038;50.166;18.908;2024-02-21T03:46:30;98514.75;;;3.51;99.13
21401;BME280;18038;50.166;18.908;2024-02-21T03:49:39;98509.75;;;3.48;99.60
21401;BME280;18038;50.166;18.908;2024-02-21T03:52:47;98508.56;;;3.52;99.60
21401;BME280;18038;50.166;18.908;2024-02-21T03:55:55;98520.38;;;3.57;99.33
21401;BME280;18038;50.166;18.908;2024-02-21T03:59:09;98504.66;;;3.67;98.34
21401;BME280;18038;50.166;18.908;2024-02-21T04:02:17;98508.38;;;3.64;97.44
21401;BME280;18038;50.166;18.908;2024-02-21T04:05:25;98511.00;;;3.64;97.01
21401;BME280;18038;50.166;18.908;2024-02-21T04:08:33;98515.50;;;3.74;96.47
21401;BME280;18038;50.166;18.908;2024-02-21T04:11:40;98518.66;;;3.68;96.30
21401;BME280;18038;50.166;18.908;2024-02-21T04:14:52;98512.56;;;3.67;96.42
21401;BME280;18038;50.166;18.908;2024-02-21T04:17:59;98511.69;;;3.67;96.56
21401;BME280;18038;50.166;18.908;2024-02-21T04:21:08;98517.28;;;3.73;97.07
21401;BME280;18038;50.166;18.908;2024-02-21T04:24:18;98507.47;;;3.75;96.49
21401;BME280;18038;50.166;18.908;2024-02-21T04:27:27;98496.47;;;3.70;96.70
21401;BME280;18038;50.166;18.908;2024-02-21T04:30:36;98501.03;;;3.68;97.46
21401;BME280;18038;50.166;18.908;2024-02-21T04:33:45;98508.22;;;3.66;97.62
21401;BME280;18038;50.166;18.908;2024-02-21T04:36:52;98510.75;;;3.68;97.30
21401;BME280;18038;50.166;18.908;2024-02-21T04:40:00;98514.09;;;3.70;97.70
21401;BME280;18038;50.166;18.908;2024-02-21T04:43:08;98508.75;;;3.60;97.46
21401;BME280;18038;50.166;18.908;2024-02-21T04:46:19;98509.47;;;3.62;97.82
21401;BME280;18038;50.166;18.908;2024-02-21T04:49:26;98502.38;;;3.62;98.03
21401;BME280;18038;50.166;18.908;2024-02-21T04:52:34;98496.97;;;3.64;98.11
21401;BME280;18038;50.166;18.908;2024-02-21T04:55:42;98501.28;;;3.65;98.15
21401;BME280;18038;50.166;18.908;2024-02-21T04:58:50;98496.41;;;3.60;98.16
21401;BME280;18038;50.166;18.908;2024-02-21T05:02:00;98492.94;;;3.60;98.42
21401;BME280;18038;50.166;18.908;2024-02-21T05:05:08;98482.16;;;3.63;98.35
21401;BME280;18038;50.166;18.908;2024-02-21T05:08:15;98479.50;;;3.63;98.36
21401;BME280;18038;50.166;18.908;2024-02-21T05:11:24;98472.41;;;3.54;98.43
21401;BME280;18038;50.166;18.908;2024-02-21T05:14:31;98470.69;;;3.53;98.37
21401;BME280;18038;50.166;18.908;2024-02-21T05:17:42;98468.84;;;3.43;98.67
21401;BME280;18038;50.166;18.908;2024-02-21T05:20:49;98470.00;;;3.51;98.83
21401;BME280;18038;50.166;18.908;2024-02-21T05:23:57;98462.16;;;3.39;98.44
21401;BME280;18038;50.166;18.908;2024-02-21T05:27:06;98460.88;;;3.34;99.01
21401;BME280;18038;50.166;18.908;2024-02-21T05:30:14;98461.84;;;3.33;99.61
21401;BME280;18038;50.166;18.908;2024-02-21T05:33:24;98469.88;;;3.31;99.46
21401;BME280;18038;50.166;18.908;2024-02-21T05:36:33;98467.94;;;3.33;99.69
21401;BME280;18038;50.166;18.908;2024-02-21T05:39:40;98467.69;;;3.36;99.91
21401;BME280;18038;50.166;18.908;2024-02-21T05:42:48;98464.47;;;3.33;99.69
21401;BME280;18038;50.166;18.908;2024-02-21T05:45:56;98465.56;;;3.30;99.95
21401;BME280;18038;50.166;18.908;2024-02-21T05:49:07;98463.44;;;3.24;99.84
21401;BME280;18038;50.166;18.908;2024-02-21T05:52:14;98468.56;;;3.26;100.00
21401;BME280;18038;50.166;18.908;2024-02-21T05:55:22;98465.31;;;3.33;100.00
21401;BME280;18038;50.166;18.908;2024-02-21T05:58:30;98467.34;;;3.30;100.00
21401;BME280;18038;50.166;18.908;2024-02-21T06:01:38;98465.31;;;3.33;100.00
21401;BME280;18038;50.166;18.908;2024-02-21T06:04:49;98459.78;;;3.36;99.95
21401;BME280;18038;50.166;18.908;2024-02-21T06:07:57;98465.75;;;3.38;100.00
21401;BME280;18038;50.166;18.908;2024-02-21T06:11:04;98461.91;;;3.42;99.86
21401;BME280;18038;50.166;18.908;2024-02-21T06:14:12;98460.94;;;3.43;99.43
21401;BME280;18038;50.166;18.908;2024-02-21T06:17:20;98460.16;;;3.53;99.66
21401;BME280;18038;50.166;18.908;2024-02-21T06:20:31;98463.78;;;3.52;98.67
21401;BME280;18038;50.166;18.908;2024-02-21T06:23:40;98465.78;;;3.59;98.73
21401;BME280;18038;50.166;18.908;2024-02-21T06:26:48;98466.91;;;3.67;98.53
21401;BME280;18038;50.166;18.908;2024-02-21T06:29:55;98466.66;;;3.70;98.21
21401;BME280;18038;50.166;18.908;2024-02-21T06:33:04;98464.34;;;3.76;97.91
21401;BME280;18038;50.166;18.908;2024-02-21T06:36:14;98465.16;;;3.77;97.72
21401;BME280;18038;50.166;18.908;2024-02-21T06:39:22;98466.44;;;3.82;97.96
21401;BME280;18038;50.166;18.908;2024-02-21T06:42:30;98463.56;;;3.85;97.68
21401;BME280;18038;50.166;18.908;2024-02-21T06:45:40;98465.88;;;3.79;97.33
21401;BME280;18038;50.166;18.908;2024-02-21T06:48:51;98456.44;;;3.76;96.85
21401;BME280;18038;50.166;18.908;2024-02-21T06:52:05;98459.91;;;3.77;97.39
21401;BME280;18038;50.166;18.908;2024-02-21T06:55:12;98457.84;;;3.80;97.26
21401;BME280;18038;50.166;18.908;2024-02-21T06:58:21;98463.03;;;3.92;97.13
21401;BME280;18038;50.166;18.908;2024-02-21T07:01:28;98461.28;;;4.02;96.66
21401;BME280;18038;50.166;18.908;2024-02-21T07:04:36;98466.03;;;4.08;96.31
21401;BME280;18038;50.166;18.908;2024-02-21T07:07:47;98467.28;;;4.14;95.51
21401;BME280;18038;50.166;18.908;2024-02-21T07:10:55;98475.63;;;4.19;95.31
21401;BME280;18038;50.166;18.908;2024-02-21T07:14:02;98472.72;;;4.22;95.42
21401;BME280;18038;50.166;18.908;2024-02-21T07:17:10;98471.38;;;4.27;95.49
21401;BME280;18038;50.166;18.908;2024-02-21T07:20:18;98472.44;;;4.15;95.40
21401;BME280;18038;50.166;18.908;2024-02-21T07:23:29;98465.75;;;4.11;96.01
21401;BME280;18038;50.166;18.908;2024-02-21T07:26:36;98462.84;;;4.14;96.37
21401;BME280;18038;50.166;18.908;2024-02-21T07:29:44;98462.59;;;4.17;96.32
21401;BME280;18038;50.166;18.908;2024-02-21T07:32:53;98450.94;;;4.20;96.13
21401;BME280;18038;50.166;18.908;2024-02-21T07:36:05;98451.03;;;4.08;96.21
21401;BME280;18038;50.166;18.908;2024-02-21T07:39:15;98449.94;;;4.11;96.26
21401;BME280;18038;50.166;18.908;2024-02-21T07:42:23;98442.47;;;4.16;96.37
21401;BME280;18038;50.166;18.908;2024-02-21T07:45:30;98444.75;;;4.30;95.92
21401;BME280;18038;50.166;18.908;2024-02-21T07:48:39;98435.06;;;4.50;95.07
21401;BME280;18038;50.166;18.908;2024-02-21T07:51:46;98443.84;;;4.61;94.20
21401;BME280;18038;50.166;18.908;2024-02-21T07:54:57;98439.31;;;4.82;93.55
21401;BME280;18038;50.166;18.908;2024-02-21T07:58:04;98434.34;;;5.08;92.53
21401;BME280;18038;50.166;18.908;2024-02-21T08:01:18;98434.41;;;5.65;90.79
21401;BME280;18038;50.166;18.908;2024-02-21T08:04:26;98432.88;;;6.10;87.69
21401;BME280;18038;50.166;18.908;2024-02-21T08:07:34;98423.09;;;6.47;86.26
21401;BME280;18038;50.166;18.908;2024-02-21T08:10:44;98413.84;;;6.97;83.94
21401;BME280;18038;50.166;18.908;2024-02-21T08:13:52;98416.91;;;7.64;81.89
21401;BME280;18038;50.166;18.908;2024-02-21T08:16:59;98413.72;;;8.21;78.55
21401;BME280;18038;50.166;18.908;2024-02-21T08:20:10;98418.59;;;8.42;77.32
21401;BME280;18038;50.166;18.908;2024-02-21T08:23:18;98408.78;;;9.01;75.04
21401;BME280;18038;50.166;18.908;2024-02-21T08:26:29;98408.84;;;9.42;72.94
21401;BME280;18038;50.166;18.908;2024-02-21T08:29:37;98416.16;;;9.24;73.02
21401;BME280;18038;50.166;18.908;2024-02-21T08:32:45;98412.00;;;9.13;74.55
21401;BME280;18038;50.166;18.908;2024-02-21T08:35:52;98411.09;;;8.88;74.47
21401;BME280;18038;50.166;18.908;2024-02-21T08:39:01;98409.84;;;8.49;75.98
21401;BME280;18038;50.166;18.908;2024-02-21T08:42:12;98409.84;;;8.07;76.72
21401;BME280;18038;50.166;18.908;2024-02-21T08:45:20;98407.94;;;7.91;78.18
21401;BME280;18038;50.166;18.908;2024-02-21T08:48:27;98403.41;;;7.83;78.02
21401;BME280;18038;50.166;18.908;2024-02-21T08:51:36;98393.44;;;7.77;79.04
21401;BME280;18038;50.166;18.908;2024-02-21T08:54:43;98382.28;;;8.00;79.20
21401;BME280;18038;50.166;18.908;2024-02-21T08:57:54;98392.03;;;8.34;77.17
21401;BME280;18038;50.166;18.908;2024-02-21T09:01:01;98382.03;;;8.78;75.62
21401;BME280;18038;50.166;18.908;2024-02-21T09:04:10;98384.22;;;9.56;73.34
21401;BME280;18038;50.166;18.908;2024-02-21T09:07:17;98375.72;;;10.17;71.02
21401;BME280;18038;50.166;18.908;2024-02-21T09:10:25;98372.75;;;10.51;68.95
21401;BME280;18038;50.166;18.908;2024-02-21T09:13:35;98375.81;;;11.55;66.46
21401;BME280;18038;50.166;18.908;2024-02-21T09:16:43;98380.03;;;11.11;64.39
21401;BME280;18038;50.166;18.908;2024-02-21T09:19:51;98379.94;;;11.43;65.08
21401;BME280;18038;50.166;18.908;2024-02-21T09:23:00;98383.59;;;11.94;63.46
21401;BME280;18038;50.166;18.908;2024-02-21T09:26:08;98379.00;;;11.88;62.88
21401;BME280;18038;50.166;18.908;2024-02-21T09:29:21;98379.34;;;11.55;62.36
21401;BME280;18038;50.166;18.908;2024-02-21T09:32:30;98383.63;;;10.73;65.99
21401;BME280;18038;50.166;18.908;2024-02-21T09:35:39;98378.25;;;11.04;64.59
21401;BME280;18038;50.166;18.908;2024-02-21T09:38:46;98385.94;;;10.05;68.18
21401;BME280;18038;50.166;18.908;2024-02-21T09:41:59;98382.66;;;9.87;67.14
21401;BME280;18038;50.166;18.908;2024-02-21T09:45:20;98388.88;;;9.63;68.57
21401;BME280;18038;50.166;18.908;2024-02-21T09:48:44;98387.53;;;9.58;69.72
21401;BME280;18038;50.166;18.908;2024-02-21T09:52:04;98394.22;;;9.22;70.53
21401;BME280;18038;50.166;18.908;2024-02-21T09:55:15;98388.56;;;9.08;72.21
21401;BME280;18038;50.166;18.908;2024-02-21T09:58:26;98381.59;;;9.24;70.83
21401;BME280;18038;50.166;18.908;2024-02-21T10:01:37;98363.94;;;8.82;71.00
21401;BME280;18038;50.166;18.908;2024-02-21T10:04:45;98386.03;;;8.99;71.50
21401;BME280;18038;50.166;18.908;2024-02-21T10:07:55;98377.25;;;9.14;70.99
21401;BME280;18038;50.166;18.908;2024-02-21T10:11:03;98371.13;;;9.14;70.44
21401;BME280;18038;50.166;18.908;2024-02-21T10:14:14;98370.63;;;9.10;70.31
21401;BME280;18038;50.166;18.908;2024-02-21T10:17:25;98379.88;;;9.06;70.07
21401;BME280;18038;50.166;18.908;2024-02-21T10:20:33;98378.50;;;8.69;71.55
21401;BME280;18038;50.166;18.908;2024-02-21T10:23:44;98381.50;;;8.75;71.33
21401;BME280;18038;50.166;18.908;2024-02-21T10:26:59;98373.53;;;8.66;70.57
21401;BME280;18038;50.166;18.908;2024-02-21T10:30:13;98369.09;;;8.91;70.89
21401;BME280;18038;50.166;18.908;2024-02-21T10:33:26;98377.56;;;8.87;69.29
21401;BME280;18038;50.166;18.908;2024-02-21T10:36:36;98366.53;;;8.49;70.59
21401;BME280;18038;50.166;18.908;2024-02-21T10:39:44;98362.28;;;8.73;69.38
21401;BME280;18038;50.166;18.908;2024-02-21T10:42:56;98358.81;;;9.05;67.82
21401;BME280;18038;50.166;18.908;2024-02-21T10:46:06;98351.81;;;8.96;67.30
21401;BME280;18038;50.166;18.908;2024-02-21T10:49:23;98344.38;;;9.32;67.63
21401;BME280;18038;50.166;18.908;2024-02-21T10:52:46;98344.69;;;9.37;67.12
21401;BME280;18038;50.166;18.908;2024-02-21T10:56:10;98343.03;;;9.44;66.94
21401;BME280;18038;50.166;18.908;2024-02-21T10:59:25;98342.88;;;9.13;66.93
21401;BME280;18038;50.166;18.908;2024-02-21T11:02:36;98334.03;;;8.88;67.96
21401;BME280;18038;50.166;18.908;2024-02-21T11:05:49;98342.19;;;8.86;68.64
21401;BME280;18038;50.166;18.908;2024-02-21T11:09:02;98327.56;;;8.66;70.02
21401;BME280;18038;50.166;18.908;2024-02-21T11:12:11;98330.06;;;8.76;70.02
21401;BME280;18038;50.166;18.908;2024-02-21T11:15:27;98322.25;;;8.66;69.39
21401;BME280;18038;50.166;18.908;2024-02-21T11:18:35;98317.88;;;8.40;70.09
21401;BME280;18038;50.166;18.908;2024-02-21T11:21:45;98316.88;;;8.25;70.59
21401;BME280;18038;50.166;18.908;2024-02-21T11:24:53;98306.03;;;8.10;71.19
21401;BME280;18038;50.166;18.908;2024-02-21T11:28:03;98296.28;;;8.19;71.03
21401;BME280;18038;50.166;18.908;2024-02-21T11:31:13;98300.44;;;8.30;71.50
21401;BME280;18038;50.166;18.908;2024-02-21T11:34:22;98298.13;;;8.26;71.74
21401;BME280;18038;50.166;18.908;2024-02-21T11:37:35;98289.66;;;8.23;72.28
21401;BME280;18038;50.166;18.908;2024-02-21T11:40:46;98287.50;;;8.18;71.85
21401;BME280;18038;50.166;18.908;2024-02-21T11:43:54;98286.34;;;8.21;72.10
21401;BME280;18038;50.166;18.908;2024-02-21T11:47:01;98279.72;;;8.17;72.68
21401;BME280;18038;50.166;18.908;2024-02-21T11:50:10;98277.25;;;8.32;73.00
21401;BME280;18038;50.166;18.908;2024-02-21T11:53:24;98284.84;;;8.18;72.84
21401;BME280;18038;50.166;18.908;2024-02-21T11:56:39;98282.81;;;7.96;73.12
21401;BME280;18038;50.166;18.908;2024-02-21T11:59:46;98287.72;;;7.82;73.56
21401;BME280;18038;50.166;18.908;2024-02-21T12:02:59;98287.66;;;7.74;74.03
21401;BME280;18038;50.166;18.908;2024-02-21T12:06:07;98285.28;;;7.55;75.14
21401;BME280;18038;50.166;18.908;2024-02-21T12:09:18;98277.00;;;7.58;76.76
21401;BME280;18038;50.166;18.908;2024-02-21T12:12:26;98271.69;;;7.58;78.14
21401;BME280;18038;50.166;18.908;2024-02-21T12:15:35;98271.19;;;7.54;77.37
21401;BME280;18038;50.166;18.908;2024-02-21T12:18:42;98276.97;;;7.50;78.33
21401;BME280;18038;50.166;18.908;2024-02-21T12:21:50;98267.53;;;7.55;78.57
21401;BME280;18038;50.166;18.908;2024-02-21T12:25:03;98269.22;;;7.56;80.10
21401;BME280;18038;50.166;18.908;2024-02-21T12:28:12;98268.16;;;7.41;79.97
21401;BME280;18038;50.166;18.908;2024-02-21T12:31:21;98264.69;;;7.41;81.43
21401;BME280;18038;50.166;18.908;2024-02-21T12:34:29;98263.22;;;7.20;81.03
21401;BME280;18038;50.166;18.908;2024-02-21T12:37:55;98245.25;;;7.06;79.44
21401;BME280;18038;50.166;18.908;2024-02-21T12:41:07;98247.03;;;7.05;81.40
21401;BME280;18038;50.166;18.908;2024-02-21T12:44:14;98245.13;;;7.15;82.45
21401;BME280;18038;50.166;18.908;2024-02-21T12:47:23;98243.72;;;7.03;81.97
21401;BME280;18038;50.166;18.908;2024-02-21T12:50:30;98250.66;;;6.78;82.20
21401;BME280;18038;50.166;18.908;2024-02-21T12:53:38;98247.34;;;6.76;83.84
21401;BME280;18038;50.166;18.908;2024-02-21T12:56:48;98239.94;;;6.80;83.74
21401;BME280;18038;50.166;18.908;2024-02-21T12:59:56;98238.06;;;6.98;84.31
21401;BME280;18038;50.166;18.908;2024-02-21T13:03:04;98229.75;;;6.93;83.40
21401;BME280;18038;50.166;18.908;2024-02-21T13:06:12;98230.22;;;6.88;83.72
21401;BME280;18038;50.166;18.908;2024-02-21T13:09:20;98188.59;;;6.72;84.89
21401;BME280;18038;50.166;18.908;2024-02-21T13:12:30;98221.97;;;6.91;85.38
21401;BME280;18038;50.166;18.908;2024-02-21T13:15:37;98208.41;;;6.94;85.63
21401;BME280;18038;50.166;18.908;2024-02-21T13:18:47;98211.31;;;6.83;86.34
21401;BME280;18038;50.166;18.908;2024-02-21T13:21:55;98209.38;;;6.67;85.84
21401;BME280;18038;50.166;18.908;2024-02-21T13:25:04;98197.81;;;6.68;86.02
21401;BME280;18038;50.166;18.908;2024-02-21T13:28:15;98198.97;;;6.66;86.47
21401;BME280;18038;50.166;18.908;2024-02-21T13:31:23;98200.75;;;6.65;86.88
21401;BME280;18038;50.166;18.908;2024-02-21T13:34:30;98197.66;;;6.70;87.55
21401;BME280;18038;50.166;18.908;2024-02-21T13:37:39;98189.66;;;6.62;87.63
21401;BME280;18038;50.166;18.908;2024-02-21T13:40:46;98180.69;;;6.55;88.10
21401;BME280;18038;50.166;18.908;2024-02-21T13:43:57;98181.88;;;6.60;88.71
21401;BME280;18038;50.166;18.908;2024-02-21T13:47:05;98187.03;;;6.62;88.21
21401;BME280;18038;50.166;18.908;2024-02-21T13:50:14;98185.28;;;6.52;88.05
21401;BME280;18038;50.166;18.908;2024-02-21T13:53:31;98186.19;;;6.61;88.13
21401;BME280;18038;50.166;18.908;2024-02-21T13:56:39;98189.34;;;6.65;87.62
21401;BME280;18038;50.166;18.908;2024-02-21T13:59:49;98178.09;;;6.63;86.16
21401;BME280;18038;50.166;18.908;2024-02-21T14:02:57;98175.28;;;6.64;87.37
21401;BME280;18038;50.166;18.908;2024-02-21T14:06:05;98170.47;;;6.60;87.67
21401;BME280;18038;50.166;18.908;2024-02-21T14:09:13;98172.78;;;6.63;87.00
21401;BME280;18038;50.166;18.908;2024-02-21T14:12:20;98164.84;;;6.63;87.13
21401;BME280;18038;50.166;18.908;2024-02-21T14:15:31;98155.03;;;6.55;87.07
21401;BME280;18038;50.166;18.908;2024-02-21T14:18:39;98152.06;;;6.50;87.50
21401;BME280;18038;50.166;18.908;2024-02-21T14:21:48;98140.56;;;6.41;87.34
21401;BME280;18038;50.166;18.908;2024-02-21T14:24:56;98132.25;;;6.36;88.19
21401;BME280;18038;50.166;18.908;2024-02-21T14:28:05;98133.75;;;6.39;88.19
21401;BME280;18038;50.166;18.908;2024-02-21T14:31:15;98125.31;;;6.35;88.06
21401;BME280;18038;50.166;18.908;2024-02-21T14:34:23;98133.94;;;6.37;88.77
21401;BME280;18038;50.166;18.908;2024-02-21T14:37:31;98114.84;;;6.51;87.51
21401;BME280;18038;50.166;18.908;2024-02-21T14:40:39;98111.88;;;6.55;87.12
21401;BME280;18038;50.166;18.908;2024-02-21T14:43:47;98094.44;;;6.44;87.77
21401;BME280;18038;50.166;18.908;2024-02-21T14:46:57;98085.69;;;6.43;87.51
21401;BME280;18038;50.166;18.908;2024-02-21T14:50:06;98074.72;;;6.38;87.42
21401;BME280;18038;50.166;18.908;2024-02-21T14:53:15;98071.31;;;6.46;87.34
21401;BME280;18038;50.166;18.908;2024-02-21T14:56:23;98082.34;;;6.41;86.64
21401;BME280;18038;50.166;18.908;2024-02-21T14:59:31;98082.06;;;6.52;86.19
21401;BME280;18038;50.166;18.908;2024-02-21T15:02:41;98092.09;;;6.41;85.42
21401;BME280;18038;50.166;18.908;2024-02-21T15:05:50;98089.91;;;6.36;85.93
21401;BME280;18038;50.166;18.908;2024-02-21T15:08:58;98082.31;;;6.33;85.49
21401;BME280;18038;50.166;18.908;2024-02-21T15:12:06;98090.25;;;6.33;85.69
21401;BME280;18038;50.166;18.908;2024-02-21T15:15:14;98095.16;;;6.28;85.51
21401;BME280;18038;50.166;18.908;2024-02-21T15:18:25;98098.25;;;6.23;86.06
21401;BME280;18038;50.166;18.908;2024-02-21T15:21:32;98093.56;;;6.35;85.81
21401;BME280;18038;50.166;18.908;2024-02-21T15:24:40;98082.81;;;6.37;85.60
21401;BME280;18038;50.166;18.908;2024-02-21T15:27:51;98082.63;;;6.30;85.47
21401;BME280;18038;50.166;18.908;2024-02-21T15:30:59;98077.00;;;6.33;85.56
21401;BME280;18038;50.166;18.908;2024-02-21T15:34:10;98070.38;;;6.29;85.65
21401;BME280;18038;50.166;18.908;2024-02-21T15:37:18;98068.72;;;6.28;85.85
21401;BME280;18038;50.166;18.908;2024-02-21T15:40:25;98057.44;;;6.26;86.32
21401;BME280;18038;50.166;18.908;2024-02-21T15:43:34;98053.78;;;6.19;86.69
21401;BME280;18038;50.166;18.908;2024-02-21T15:46:42;98052.41;;;6.15;86.88
21401;BME280;18038;50.166;18.908;2024-02-21T15:49:52;98046.75;;;6.10;87.41
21401;BME280;18038;50.166;18.908;2024-02-21T15:53:00;98046.72;;;6.01;87.53
21401;BME280;18038;50.166;18.908;2024-02-21T15:56:08;98055.72;;;5.91;88.31
21401;BME280;18038;50.166;18.908;2024-02-21T15:59:16;98055.34;;;5.85;88.09
21401;BME280;18038;50.166;18.908;2024-02-21T16:02:25;98054.00;;;5.81;88.45
21401;BME280;18038;50.166;18.908;2024-02-21T16:05:35;98051.81;;;5.77;88.59
21401;BME280;18038;50.166;18.908;2024-02-21T16:08:44;98061.72;;;5.75;88.75
21401;BME280;18038;50.166;18.908;2024-02-21T16:11:54;98065.34;;;5.74;88.93
21401;BME280;18038;50.166;18.908;2024-02-21T16:15:03;98058.94;;;5.76;88.59
21401;BME280;18038;50.166;18.908;2024-02-21T16:18:11;98053.78;;;5.75;88.24
21401;BME280;18038;50.166;18.908;2024-02-21T16:21:22;98051.00;;;5.76;88.31
21401;BME280;18038;50.166;18.908;2024-02-21T16:24:31;98043.72;;;5.78;88.19
21401;BME280;18038;50.166;18.908;2024-02-21T16:27:39;98040.78;;;5.81;87.60
21401;BME280;18038;50.166;18.908;2024-02-21T16:30:46;98035.66;;;5.80;87.71
21401;BME280;18038;50.166;18.908;2024-02-21T16:33:55;98030.31;;;5.72;88.30
21401;BME280;18038;50.166;18.908;2024-02-21T16:37:06;98032.56;;;5.67;87.77
21401;BME280;18038;50.166;18.908;2024-02-21T16:40:14;98035.91;;;5.69;87.78
21401;BME280;18038;50.166;18.908;2024-02-21T16:43:22;98035.22;;;5.67;87.29